createdAt,value
2024-04-26T00:00:03.521Z,51.71
2024-04-26T00:02:34.456Z,51.67
2024-04-26T00:05:04.548Z,51.65
2024-04-26T00:07:34.642Z,51.78
2024-04-26T00:10:05.406Z,51.74
2024-04-26T00:12:35.868Z,51.78
2024-04-26T00:15:06.718Z,51.81
2024-04-26T00:17:36.886Z,51.87
2024-04-26T00:20:07.855Z,51.87
2024-04-26T00:22:37.925Z,51.86
2024-04-26T00:25:08.534Z,51.97
2024-04-26T00:27:39.309Z,52.07
2024-04-26T00:30:10.001Z,52.06
2024-04-26T00:32:40.237Z,52.04
2024-04-26T00:35:10.458Z,52.14
2024-04-26T00:37:41.091Z,52.25
2024-04-26T00:40:12.639Z,52.31
2024-04-26T00:42:42.777Z,52.41
2024-04-26T00:45:12.920Z,52.46
2024-04-26T00:47:42.981Z,52.51
2024-04-26T00:50:12.995Z,52.59
2024-04-26T00:52:43.023Z,52.67
2024-04-26T00:55:13.527Z,52.65
2024-04-26T00:57:43.609Z,52.77
2024-04-26T01:00:14.861Z,52.72
2024-04-26T01:02:44.964Z,53.02
2024-04-26T01:05:15.050Z,53.24
2024-04-26T01:07:45.458Z,53.41
2024-04-26T01:10:16.132Z,53.49
2024-04-26T01:12:46.068Z,53.56
2024-04-26T01:15:16.220Z,53.51
2024-04-26T01:17:46.735Z,53.76
2024-04-26T01:20:16.846Z,53.73
2024-04-26T01:22:47.690Z,54.03
2024-04-26T01:25:17.782Z,54.09
2024-04-26T01:27:47.960Z,54.08
2024-04-26T01:30:19.330Z,54.20
2024-04-26T01:32:50.644Z,54.12
2024-04-26T01:35:21.266Z,54.45
2024-04-26T01:37:51.307Z,54.48
2024-04-26T01:40:21.232Z,54.38
2024-04-26T01:42:51.192Z,54.71
2024-04-26T01:45:21.213Z,54.73
2024-04-26T01:47:51.257Z,54.77
2024-04-26T01:50:21.352Z,54.63
2024-04-26T01:52:51.829Z,54.73
2024-04-26T01:55:21.798Z,54.94
2024-04-26T01:57:53.688Z,55.00
2024-04-26T02:00:24.518Z,54.80
2024-04-26T02:02:55.960Z,54.78
2024-04-26T02:05:26.177Z,54.70
2024-04-26T02:07:56.351Z,54.68
2024-04-26T02:10:26.314Z,54.63
2024-04-26T02:12:56.457Z,54.65
2024-04-26T02:15:26.473Z,54.63
2024-04-26T02:17:56.650Z,54.56
2024-04-26T02:20:26.717Z,54.47
2024-04-26T02:22:56.880Z,54.51
2024-04-26T02:25:26.895Z,54.51
2024-04-26T02:27:56.943Z,54.46
2024-04-26T02:30:27.065Z,54.59
2024-04-26T02:32:58.449Z,54.72
2024-04-26T02:35:29.947Z,54.64
2024-04-26T02:38:01.369Z,54.64
2024-04-26T02:40:32.391Z,54.52
2024-04-26T02:43:03.455Z,54.58
2024-04-26T02:45:33.627Z,54.63
2024-04-26T02:48:04.551Z,54.70
2024-04-26T02:50:34.584Z,54.72
2024-04-26T02:53:06.031Z,54.79
2024-04-26T02:55:35.971Z,54.82
2024-04-26T02:58:05.907Z,54.82
2024-04-26T03:00:36.165Z,54.81
2024-04-26T03:03:07.469Z,54.79
2024-04-26T03:05:37.538Z,54.92
2024-04-26T03:08:08.074Z,54.95
2024-04-26T03:10:38.112Z,54.92
2024-04-26T03:13:08.472Z,55.07
2024-04-26T03:15:40.181Z,55.02
2024-04-26T03:18:10.536Z,55.16
2024-04-26T03:20:40.699Z,55.18
2024-04-26T03:23:10.987Z,55.25
2024-04-26T03:25:40.909Z,55.25
2024-04-26T03:28:11.676Z,55.33
2024-04-26T03:30:41.765Z,55.38
2024-04-26T03:33:13.110Z,55.43
2024-04-26T03:35:43.277Z,55.47
2024-04-26T03:38:13.387Z,55.58
2024-04-26T03:40:43.392Z,55.57
2024-04-26T03:43:14.754Z,55.73
2024-04-26T03:45:44.860Z,55.78
2024-04-26T03:48:15.047Z,55.96
2024-04-26T03:50:45.533Z,56.02
2024-04-26T03:53:15.639Z,56.01
2024-04-26T03:55:45.587Z,56.03
2024-04-26T03:58:15.545Z,56.09
2024-04-26T04:00:45.622Z,56.12
2024-04-26T04:03:15.824Z,56.05
2024-04-26T04:05:46.153Z,56.15
2024-04-26T04:08:16.308Z,56.15
2024-04-26T04:10:47.022Z,56.12
2024-04-26T04:13:19.005Z,56.11
2024-04-26T04:15:49.138Z,56.07
2024-04-26T04:18:19.299Z,56.26
2024-04-26T04:20:49.318Z,56.17
2024-04-26T04:23:19.448Z,56.28
2024-04-26T04:25:49.874Z,56.24
2024-04-26T04:28:19.805Z,56.27
2024-04-26T04:30:49.819Z,56.34
2024-04-26T04:33:21.340Z,56.45
2024-04-26T04:35:53.055Z,56.41
2024-04-26T04:38:23.267Z,56.42
2024-04-26T04:40:53.265Z,56.39
2024-04-26T04:43:23.204Z,56.52
2024-04-26T04:45:53.780Z,56.45
2024-04-26T04:48:23.952Z,56.59
2024-04-26T04:50:54.036Z,56.53
2024-04-26T04:53:24.117Z,56.60
2024-04-26T04:55:54.124Z,56.67
2024-04-26T04:58:24.087Z,56.70
2024-04-26T05:00:54.108Z,56.76
2024-04-26T05:03:24.735Z,56.90
2024-04-26T05:05:54.828Z,56.97
2024-04-26T05:08:25.044Z,57.02
2024-04-26T05:10:55.122Z,57.12
2024-04-26T05:13:25.170Z,56.97
2024-04-26T05:15:55.266Z,57.10
2024-04-26T05:18:25.332Z,57.12
2024-04-26T05:20:55.489Z,57.14
2024-04-26T05:23:25.588Z,57.27
2024-04-26T05:25:55.546Z,57.13
2024-04-26T05:28:25.454Z,57.16
2024-04-26T05:30:55.805Z,57.21
2024-04-26T05:33:25.893Z,57.28
2024-04-26T05:35:56.039Z,57.32
2024-04-26T05:38:26.501Z,57.38
2024-04-26T05:40:56.560Z,57.31
2024-04-26T05:43:26.509Z,57.30
2024-04-26T05:45:57.992Z,57.28
2024-04-26T05:48:28.678Z,57.48
2024-04-26T05:50:58.790Z,57.33
2024-04-26T05:53:28.948Z,57.36
2024-04-26T05:56:01.404Z,57.44
2024-04-26T05:58:32.129Z,57.49
2024-04-26T06:01:03.259Z,57.38
2024-04-26T06:03:34.959Z,57.49
2024-04-26T06:06:05.070Z,57.41
2024-04-26T06:08:36.628Z,57.52
2024-04-26T06:11:07.643Z,57.41
2024-04-26T06:13:37.938Z,57.40
2024-04-26T06:16:08.353Z,57.41
2024-04-26T06:18:40.787Z,57.51
2024-04-26T06:21:11.320Z,57.46
2024-04-26T06:23:41.703Z,57.52
2024-04-26T06:26:13.176Z,57.54
2024-04-26T06:28:44.044Z,57.40
2024-04-26T06:31:15.275Z,57.45
2024-04-26T06:33:45.283Z,57.53
2024-04-26T06:36:15.424Z,57.49
2024-04-26T06:38:45.481Z,57.49
2024-04-26T06:41:15.506Z,57.36
2024-04-26T06:43:46.710Z,57.39
2024-04-26T06:46:16.965Z,57.54
2024-04-26T06:48:47.165Z,57.52
2024-04-26T06:51:17.247Z,57.52
2024-04-26T06:53:47.437Z,57.56
2024-04-26T06:56:17.482Z,57.59
2024-04-26T06:58:47.420Z,57.58
2024-04-26T07:01:17.600Z,57.56
2024-04-26T07:03:47.881Z,57.54
2024-04-26T07:06:18.029Z,57.55
2024-04-26T07:08:48.126Z,57.47
2024-04-26T07:11:18.358Z,57.45
2024-04-26T07:13:48.895Z,57.68
2024-04-26T07:16:20.267Z,57.54
2024-04-26T07:18:50.381Z,57.60
2024-04-26T07:21:20.523Z,57.68
2024-04-26T07:23:51.397Z,57.70
2024-04-26T07:26:24.170Z,57.52
2024-04-26T07:28:54.183Z,57.80
2024-04-26T07:31:24.197Z,57.98
2024-04-26T07:33:54.459Z,58.17
2024-04-26T07:36:24.503Z,58.38
2024-04-26T07:38:54.637Z,58.49
2024-04-26T07:41:24.709Z,58.47
2024-04-26T07:43:56.481Z,58.54
2024-04-26T07:46:26.286Z,58.56
2024-04-26T07:48:56.360Z,58.79
2024-04-26T07:51:26.432Z,58.85
2024-04-26T07:53:56.568Z,58.88
2024-04-26T07:56:26.611Z,58.85
2024-04-26T07:58:56.652Z,58.97
2024-04-26T08:01:26.726Z,59.01
2024-04-26T08:03:56.761Z,59.19
2024-04-26T08:06:27.936Z,59.20
2024-04-26T08:08:58.091Z,59.30
2024-04-26T08:11:28.254Z,59.30
2024-04-26T08:13:58.231Z,59.39
2024-04-26T08:16:29.759Z,59.45
2024-04-26T08:19:00.549Z,59.48
2024-04-26T08:21:31.395Z,59.48
2024-04-26T08:24:03.770Z,59.51
2024-04-26T08:26:36.129Z,59.62
2024-04-26T08:29:06.313Z,59.63
2024-04-26T08:31:36.315Z,59.73
2024-04-26T08:34:06.426Z,59.75
2024-04-26T08:36:36.559Z,59.75
2024-04-26T08:39:06.748Z,59.78
2024-04-26T08:41:38.279Z,59.85
2024-04-26T08:44:08.459Z,59.95
2024-04-26T08:46:44.813Z,59.98
2024-04-26T08:49:10.849Z,59.85
2024-04-26T08:51:40.978Z,59.99
2024-04-26T08:54:11.116Z,60.03
2024-04-26T08:56:42.695Z,60.26
2024-04-26T08:59:12.674Z,60.30
2024-04-26T09:01:46.157Z,60.32
2024-04-26T09:04:16.265Z,60.47
2024-04-26T09:06:46.425Z,60.40
2024-04-26T09:09:18.650Z,60.39
2024-04-26T09:11:48.093Z,60.32
2024-04-26T09:14:19.395Z,60.31
2024-04-26T09:16:49.740Z,60.17
2024-04-26T09:19:19.847Z,60.06
2024-04-26T09:21:49.872Z,60.22
2024-04-26T09:24:20.104Z,60.15
2024-04-26T09:26:50.157Z,60.07
2024-04-26T09:29:20.206Z,60.11
2024-04-26T09:31:50.493Z,60.08
2024-04-26T09:34:20.599Z,60.16
2024-04-26T09:36:50.895Z,60.08
2024-04-26T09:39:21.042Z,60.00
2024-04-26T09:41:51.616Z,60.05
2024-04-26T09:44:22.502Z,59.93
2024-04-26T09:46:52.723Z,60.11
2024-04-26T09:49:22.988Z,59.89
2024-04-26T09:51:53.191Z,59.89
2024-04-26T09:54:23.208Z,60.08
2024-04-26T09:56:53.496Z,59.95
2024-04-26T09:59:23.515Z,59.94
2024-04-26T10:01:53.672Z,59.93
2024-04-26T10:04:24.358Z,60.02
2024-04-26T10:06:54.621Z,60.10
2024-04-26T10:09:26.110Z,60.08
2024-04-26T10:11:56.313Z,60.16
2024-04-26T10:14:36.181Z,60.33
2024-04-26T10:17:13.543Z,60.25
2024-04-26T10:19:43.556Z,60.08
2024-04-26T10:22:17.920Z,59.80
2024-04-26T10:24:54.324Z,59.68
2024-04-26T10:27:39.485Z,59.56
2024-04-26T10:30:11.573Z,59.35
2024-04-26T10:32:44.348Z,59.27
2024-04-26T10:35:22.743Z,59.11
2024-04-26T10:38:04.691Z,59.01
2024-04-26T10:40:42.006Z,58.77
2024-04-26T10:43:14.398Z,58.58
2024-04-26T10:45:47.085Z,58.50
2024-04-26T10:48:17.491Z,58.26
2024-04-26T10:50:55.310Z,58.14
2024-04-26T10:53:26.567Z,58.08
2024-04-26T10:55:57.089Z,58.07
2024-04-26T12:42:32.732Z,57.75
2024-04-26T12:45:03.381Z,57.79
2024-04-26T12:47:34.473Z,57.76
2024-04-26T12:50:05.575Z,57.78
2024-04-26T12:55:04.632Z,57.88
2024-04-26T12:57:35.574Z,57.85
2024-04-26T13:00:06.588Z,57.99
2024-04-26T13:02:36.786Z,58.03
2024-04-26T13:05:08.367Z,58.00
2024-04-26T13:07:38.489Z,58.11
2024-04-26T13:10:09.183Z,58.03
2024-04-26T13:12:40.327Z,57.99
2024-04-26T13:15:10.764Z,58.00
2024-04-26T13:17:40.990Z,57.94
2024-04-26T13:20:11.623Z,57.97
2024-04-26T13:23:00.078Z,58.03
2024-04-26T13:25:31.115Z,57.98
2024-04-26T13:28:02.368Z,57.99
2024-04-26T13:30:33.352Z,58.09
2024-04-26T13:33:05.761Z,58.17
2024-04-26T13:35:37.925Z,58.17
2024-04-26T13:38:08.120Z,58.22
2024-04-26T13:40:38.056Z,58.25
2024-04-26T13:43:08.108Z,58.23
2024-04-26T13:45:38.155Z,58.27
2024-04-26T13:48:11.684Z,58.30
2024-04-26T13:50:41.325Z,58.30
2024-04-26T13:53:11.552Z,58.34
2024-04-26T13:55:41.514Z,58.39
2024-04-26T13:58:11.546Z,58.52
2024-04-26T14:00:41.696Z,58.57
2024-04-26T14:03:13.474Z,58.61
2024-04-26T14:05:44.649Z,58.71
2024-04-26T14:08:14.741Z,58.70
2024-04-26T14:10:44.737Z,58.73
2024-04-26T14:13:14.833Z,58.76
2024-04-26T14:15:44.878Z,58.81
2024-04-26T14:18:14.983Z,58.88
2024-04-26T14:20:45.636Z,58.95
2024-04-26T14:23:15.704Z,59.00
2024-04-26T14:25:46.862Z,59.00
2024-04-26T14:28:16.920Z,59.13
2024-04-26T14:30:47.020Z,59.13
2024-04-26T14:33:17.511Z,59.20
2024-04-26T14:35:47.683Z,59.25
2024-04-26T14:38:17.738Z,59.29
2024-04-26T14:40:47.837Z,59.21
2024-04-26T14:43:17.929Z,59.14
2024-04-26T14:45:48.152Z,59.22
2024-04-26T14:48:18.208Z,59.34
2024-04-26T14:50:49.170Z,60.46
2024-04-26T14:53:19.261Z,61.07
2024-04-26T14:55:49.338Z,60.55
2024-04-26T14:58:20.103Z,60.75
2024-04-26T15:00:50.950Z,60.65
2024-04-26T15:03:21.407Z,61.11
2024-04-26T15:05:51.515Z,61.29
2024-04-26T15:08:21.754Z,61.66
2024-04-26T15:10:51.796Z,61.63
2024-04-26T15:13:21.926Z,61.92
2024-04-26T15:15:51.980Z,62.24
2024-04-26T15:18:22.067Z,63.87
2024-04-26T15:20:54.965Z,64.76
2024-04-26T15:23:31.987Z,64.72
2024-04-26T15:26:03.373Z,65.31
2024-04-26T15:28:34.003Z,65.32
2024-04-26T15:31:07.640Z,66.18
2024-04-26T15:33:37.640Z,66.36
2024-04-26T15:36:09.509Z,66.68
2024-04-26T15:38:39.573Z,66.85
2024-04-26T15:41:11.012Z,67.11
2024-04-26T15:43:41.187Z,67.00
2024-04-26T15:46:11.296Z,67.89
2024-04-26T15:48:41.338Z,67.85
2024-04-26T15:51:12.238Z,67.56
2024-04-26T15:53:42.320Z,68.31
2024-04-26T15:56:15.525Z,68.47
2024-04-26T15:58:45.776Z,68.97
2024-04-26T16:01:19.349Z,68.51
2024-04-26T16:03:49.484Z,68.69
2024-04-26T16:06:19.614Z,68.50
2024-04-26T16:08:50.958Z,68.84
2024-04-26T16:11:22.182Z,68.72
2024-04-26T16:13:52.353Z,68.75
2024-04-26T16:16:22.730Z,68.73
2024-04-26T16:18:52.862Z,68.92
2024-04-26T16:21:22.902Z,68.89
2024-04-26T16:23:52.882Z,69.17
2024-04-26T16:26:25.998Z,69.14
2024-04-26T16:28:56.107Z,69.56
2024-04-26T16:31:26.349Z,69.05
2024-04-26T16:33:57.308Z,69.48
2024-04-26T16:36:29.431Z,68.98
2024-04-26T16:39:00.166Z,69.26
2024-04-26T16:41:30.130Z,69.22
2024-04-26T16:44:01.108Z,69.49
2024-04-26T16:46:32.503Z,69.29
2024-04-26T16:49:04.337Z,69.61
2024-04-26T16:51:36.187Z,69.27
2024-04-26T16:54:06.415Z,70.28
2024-04-26T16:56:39.303Z,69.92
2024-04-26T16:59:09.916Z,70.01
2024-04-26T17:01:46.835Z,69.66
2024-04-26T17:04:16.949Z,69.80
2024-04-26T17:06:47.090Z,69.24
2024-04-26T17:09:17.911Z,69.18
2024-04-26T17:11:48.086Z,68.92
2024-04-26T17:14:18.518Z,68.39
2024-04-26T17:16:48.833Z,68.02
2024-04-26T17:19:19.164Z,68.03
2024-04-26T17:21:49.259Z,67.76
2024-04-26T17:24:19.336Z,67.33
2024-04-26T17:26:49.339Z,67.03
2024-04-26T17:29:19.713Z,66.88
2024-04-26T17:31:49.883Z,66.65
2024-04-26T17:34:19.998Z,66.46
2024-04-26T17:36:50.168Z,66.26
2024-04-26T17:39:20.329Z,65.88
2024-04-26T17:41:50.512Z,65.45
2024-04-26T17:44:21.337Z,65.29
2024-04-26T17:46:51.503Z,65.24
2024-04-26T17:49:21.513Z,65.17
2024-04-26T17:51:51.533Z,64.44
2024-04-26T17:54:21.463Z,64.06
2024-04-26T17:56:51.695Z,63.88
2024-04-26T17:59:21.739Z,63.92
2024-04-26T18:01:53.216Z,63.77
2024-04-26T18:04:23.482Z,63.31
2024-04-26T18:06:53.692Z,63.10
2024-04-26T18:09:23.720Z,62.90
2024-04-26T18:11:54.605Z,62.51
2024-04-26T18:14:25.113Z,62.63
2024-04-26T18:16:55.206Z,62.12
2024-04-26T18:19:25.579Z,61.46
2024-04-26T18:21:55.828Z,60.99
2024-04-26T18:24:27.745Z,61.20
2024-04-26T18:26:58.460Z,61.34
2024-04-26T18:29:28.541Z,60.89
2024-04-26T18:31:59.354Z,60.35
2024-04-26T18:34:29.623Z,60.42
2024-04-26T18:36:59.885Z,60.15
2024-04-26T18:39:30.052Z,59.78
2024-04-26T18:42:00.103Z,59.39
2024-04-26T18:44:30.214Z,59.13
2024-04-26T18:47:01.273Z,59.03
2024-04-26T18:49:32.557Z,59.09
2024-04-26T18:52:07.009Z,58.66
2024-04-26T18:54:36.794Z,58.55
2024-04-26T18:57:07.065Z,58.06
2024-04-26T18:59:41.174Z,57.83
2024-04-26T19:02:11.243Z,57.27
2024-04-26T19:04:41.514Z,57.14
2024-04-26T19:07:11.661Z,56.96
2024-04-26T19:09:41.930Z,56.54
2024-04-26T19:12:12.394Z,56.34
2024-04-26T19:14:42.518Z,56.07
2024-04-26T19:17:12.536Z,55.94
2024-04-26T19:19:42.625Z,55.86
2024-04-26T19:22:13.281Z,55.84
2024-04-26T19:24:44.726Z,55.66
2024-04-26T19:27:14.777Z,55.65
2024-04-26T19:29:44.936Z,55.87
2024-04-26T19:32:14.960Z,55.76
2024-04-26T19:34:44.969Z,55.53
2024-04-26T19:37:15.913Z,55.53
2024-04-26T19:39:48.603Z,55.53
2024-04-26T19:42:19.790Z,55.55
2024-04-26T19:44:49.919Z,55.43
2024-04-26T19:47:22.882Z,55.26
2024-04-26T19:49:52.956Z,54.74
2024-04-26T19:52:40.660Z,54.27
2024-04-26T19:55:27.789Z,54.17
2024-04-26T19:57:57.815Z,54.27
2024-04-26T20:00:28.300Z,54.39
2024-04-26T20:02:58.412Z,54.47
2024-04-26T20:05:28.481Z,54.43
2024-04-26T20:07:58.614Z,54.19
2024-04-26T20:10:32.306Z,53.94
2024-04-26T20:13:03.125Z,53.57
2024-04-26T20:15:33.645Z,53.49
2024-04-26T20:18:04.568Z,53.23
2024-04-26T20:20:37.813Z,53.25
2024-04-26T20:23:08.681Z,53.26
2024-04-26T20:25:39.791Z,53.17
2024-04-26T20:28:10.041Z,52.89
2024-04-26T20:30:40.064Z,52.83
2024-04-26T20:33:10.234Z,52.70
2024-04-26T20:35:40.451Z,52.85
2024-04-26T20:38:10.487Z,52.79
2024-04-26T20:40:40.485Z,52.26
2024-04-26T20:43:10.729Z,52.16
2024-04-26T20:45:40.798Z,51.52
2024-04-26T20:48:11.309Z,50.87
2024-04-26T20:50:41.350Z,50.70
2024-04-26T20:53:11.827Z,50.70
2024-04-26T20:55:41.981Z,50.63
2024-04-26T20:58:12.032Z,50.37
2024-04-26T21:00:42.157Z,50.42
2024-04-26T21:03:12.181Z,49.66
2024-04-26T21:05:42.485Z,48.90
2024-04-26T21:08:13.239Z,48.90
2024-04-26T21:10:43.309Z,47.60
2024-04-26T21:13:13.295Z,47.39
2024-04-26T21:15:43.612Z,47.12
2024-04-26T21:18:13.672Z,46.78
2024-04-26T21:20:43.833Z,47.03
2024-04-26T21:23:13.890Z,46.55
2024-04-26T21:25:44.084Z,46.00
2024-04-26T21:28:14.752Z,45.64
2024-04-26T21:30:44.796Z,45.66
2024-04-26T21:33:15.013Z,44.91
2024-04-26T21:35:45.110Z,42.61
2024-04-26T21:38:15.133Z,41.37
2024-04-26T21:40:45.217Z,41.71
2024-04-26T21:43:15.364Z,40.24
2024-04-26T21:45:45.388Z,38.84
2024-04-26T21:48:15.806Z,37.01
2024-04-26T21:50:46.113Z,37.04
2024-04-26T21:53:16.222Z,36.47
2024-04-26T21:55:47.003Z,36.92
2024-04-26T21:58:18.756Z,35.52
2024-04-26T22:00:49.236Z,36.25
2024-04-26T22:03:19.518Z,36.27
2024-04-26T22:05:49.654Z,35.62
2024-04-26T22:08:19.780Z,35.29
2024-04-26T22:10:53.034Z,35.25
2024-04-26T22:13:24.149Z,34.18
2024-04-26T22:15:54.300Z,33.07
2024-04-26T22:18:24.377Z,33.28
2024-04-26T22:20:54.483Z,33.29
2024-04-26T22:23:24.674Z,33.39
2024-04-26T22:25:54.837Z,33.44
2024-04-26T22:28:24.858Z,32.97
2024-04-26T22:30:55.051Z,31.66
2024-04-26T22:33:25.870Z,31.43
2024-04-26T22:35:55.996Z,31.32
2024-04-26T22:38:26.222Z,31.62
2024-04-26T22:40:56.232Z,31.50
2024-04-26T22:43:26.267Z,31.31
2024-04-26T22:45:57.835Z,31.79
2024-04-26T22:48:28.121Z,31.13
2024-04-26T22:50:59.551Z,31.12
2024-04-26T22:53:29.714Z,30.64
2024-04-26T22:56:00.501Z,30.55
2024-04-26T22:58:30.615Z,30.55
2024-04-26T23:01:01.062Z,30.84
2024-04-26T23:03:31.134Z,31.20
2024-04-26T23:06:01.149Z,30.60
2024-04-26T23:08:31.175Z,30.67
2024-04-26T23:11:01.220Z,31.01
2024-04-26T23:13:31.959Z,31.03
2024-04-26T23:16:02.701Z,30.99
2024-04-26T23:18:35.338Z,31.40
2024-04-26T23:21:05.878Z,31.07
2024-04-26T23:23:36.864Z,31.35
2024-04-26T23:26:06.981Z,30.95
2024-04-26T23:28:36.976Z,31.04
2024-04-26T23:31:08.316Z,31.47
2024-04-26T23:33:38.947Z,38.31
2024-04-26T23:36:10.286Z,43.27
2024-04-26T23:38:40.952Z,46.10
2024-04-26T23:41:10.924Z,47.07
2024-04-26T23:43:40.861Z,47.97
2024-04-26T23:46:10.954Z,48.47
2024-04-26T23:48:40.971Z,48.88
2024-04-26T23:51:11.121Z,49.13
2024-04-26T23:53:41.221Z,49.56
2024-04-26T23:56:11.332Z,49.62
2024-04-26T23:58:41.381Z,50.20
